Time;durP1;ratioP1;P1;durP2;ratioP2;P2;SDS_P1;SDS_P2;PMS_P1;PMS_P2;Temp;Humidity;BMP_temperature;BMP_pressure;BME280_temperature;BME280_humidity;BME280_pressure;Samples;Min_cycle;Max_cycle;Signal;HPM_P1;HPM_P2
2023/03/08 00:00:40;;;;;;;6.63;2.90;;;3.80;99.90;;;;;;5054519;28;20080;-73
2023/03/08 00:03:06;;;;;;;1.55;0.90;;;3.50;99.90;;;;;;5054094;28;20028;-73
2023/03/08 00:05:31;;;;;;;4.47;2.20;;;3.40;99.90;;;;;;5053074;28;20381;-72
2023/03/08 00:07:57;;;;;;;0.22;0.22;;;3.50;99.90;;;;;;5053093;28;20029;-72
2023/03/08 00:10:23;;;;;;;4.95;0.98;;;3.50;99.90;;;;;;5053144;28;20025;-72
2023/03/08 00:12:49;;;;;;;5.72;1.90;;;3.40;99.90;;;;;;5054012;28;20108;-72
2023/03/08 00:15:15;;;;;;;0.70;0.45;;;3.70;99.90;;;;;;5054178;28;20127;-72
2023/03/08 00:17:40;;;;;;;0.20;0.20;;;3.30;99.90;;;;;;5054042;28;20090;-72
2023/03/08 00:20:09;;;;;;;3.90;3.03;;;3.40;99.90;;;;;;5085995;28;20033;-72
2023/03/08 00:22:39;;;;;;;0.47;0.47;;;3.30;99.90;;;;;;5054568;28;20378;-72
2023/03/08 00:25:05;;;;;;;6.50;5.75;;;3.40;99.90;;;;;;5053797;28;20110;-72
2023/03/08 00:27:31;;;;;;;7.95;1.30;;;3.40;99.90;;;;;;5054082;28;20717;-72
2023/03/08 00:29:57;;;;;;;1.55;0.95;;;3.60;99.90;;;;;;5053505;28;20104;-72
2023/03/08 00:32:26;;;;;;;9.95;2.97;;;3.40;99.90;;;;;;5036286;28;20025;-72
2023/03/08 00:34:52;;;;;;;0.95;0.95;;;3.50;99.90;;;;;;5052417;28;20033;-72
2023/03/08 00:37:19;;;;;;;0.45;0.45;;;3.40;99.90;;;;;;5054027;28;20032;-72
2023/03/08 00:39:52;;;;;;;0.20;0.20;;;3.60;99.90;;;;;;5052477;28;20041;-73
2023/03/08 00:42:23;;;;;;;11.77;5.70;;;3.50;99.90;;;;;;5052382;28;20036;-72
2023/03/08 00:44:49;;;;;;;0.10;0.10;;;3.40;99.90;;;;;;5052293;28;20025;-72
2023/03/08 00:47:15;;;;;;;0.20;0.20;;;3.40;99.90;;;;;;5053597;28;20025;-72
2023/03/08 00:49:42;;;;;;;3.45;3.22;;;3.50;99.90;;;;;;5052111;28;20048;-72
2023/03/08 00:52:09;;;;;;;2.70;2.50;;;3.70;99.90;;;;;;5052076;28;20401;-72
2023/03/08 00:54:36;;;;;;;0.22;0.22;;;3.60;99.90;;;;;;5053263;28;20096;-72
2023/03/08 00:57:02;;;;;;;1.38;0.90;;;3.70;99.90;;;;;;5053461;28;20090;-72
2023/03/08 00:59:28;;;;;;;1.27;1.10;;;3.80;99.90;;;;;;5053219;28;20017;-72
2023/03/08 01:01:55;;;;;;;0.17;0.17;;;3.70;99.90;;;;;;5052142;28;20048;-72
2023/03/08 01:04:21;;;;;;;1.23;1.10;;;3.70;99.90;;;;;;5053198;28;20064;-72
2023/03/08 01:06:47;;;;;;;0.10;0.10;;;3.90;99.90;;;;;;5053052;28;20032;-72
2023/03/08 01:09:13;;;;;;;0.10;0.10;;;3.80;99.90;;;;;;5052321;28;20020;-72
2023/03/08 01:11:39;;;;;;;4.20;2.72;;;3.80;99.90;;;;;;5052988;28;20427;-73
2023/03/08 01:14:09;;;;;;;0.10;0.10;;;3.90;99.90;;;;;;5085348;28;20495;-72
2023/03/08 01:16:35;;;;;;;0.00;0.00;;;4.00;99.90;;;;;;5051636;28;20507;-73
2023/03/08 01:19:04;;;;;;;0.10;0.10;;;4.00;99.90;;;;;;5052037;28;20087;-72
2023/03/08 01:21:31;;;;;;;1.10;0.63;;;4.10;99.90;;;;;;5052730;28;20366;-73
2023/03/08 01:23:57;;;;;;;0.40;0.40;;;4.10;99.90;;;;;;5051783;28;20473;-72
2023/03/08 01:26:25;;;;;;;0.10;0.10;;;4.10;99.90;;;;;;5052795;28;20025;-72
2023/03/08 01:28:55;;;;;;;0.85;0.85;;;4.20;99.90;;;;;;5052967;28;20020;-72
2023/03/08 01:31:30;;;;;;;6.82;3.03;;;4.10;99.90;;;;;;5052832;28;20112;-72
2023/03/08 01:33:58;;;;;;;0.10;0.10;;;4.10;99.90;;;;;;5051859;28;20021;-74
2023/03/08 01:36:26;;;;;;;0.05;0.05;;;4.20;99.90;;;;;;5051571;28;20036;-75
2023/03/08 01:38:52;;;;;;;1.55;0.95;;;4.20;99.90;;;;;;5051491;28;20032;-73
2023/03/08 01:41:22;;;;;;;5.28;3.85;;;4.00;99.90;;;;;;5052877;28;20036;-75
2023/03/08 01:43:49;;;;;;;2.33;1.83;;;4.00;99.90;;;;;;5034631;28;20017;-73
2023/03/08 01:46:30;;;;;;;0.17;0.17;;;3.90;99.90;;;;;;5051440;28;20044;-72
2023/03/08 01:49:12;;;;;;;3.30;1.45;;;3.90;99.90;;;;;;5084944;28;20115;-72
2023/03/08 01:52:01;;;;;;;0.10;0.10;;;3.90;99.90;;;;;;5045379;28;20028;-72
2023/03/08 01:54:31;;;;;;;0.20;0.20;;;3.90;99.90;;;;;;5054348;28;20385;-72
2023/03/08 01:57:02;;;;;;;0.10;0.10;;;4.00;99.90;;;;;;5052019;28;20059;-73
2023/03/08 01:59:30;;;;;;;0.08;0.08;;;4.00;99.90;;;;;;5084865;28;20036;-73
2023/03/08 02:01:56;;;;;;;1.23;1.13;;;4.10;99.90;;;;;;5054881;28;20106;-72
2023/03/08 02:04:22;;;;;;;0.10;0.10;;;4.10;99.90;;;;;;5058021;28;20553;-72
2023/03/08 02:06:48;;;;;;;0.10;0.10;;;4.20;99.90;;;;;;5091277;28;20120;-72
2023/03/08 02:09:19;;;;;;;0.10;0.10;;;4.10;99.90;;;;;;5077585;28;20033;-72
2023/03/08 02:11:47;;;;;;;0.28;0.28;;;4.10;99.90;;;;;;5091103;28;20029;-73
2023/03/08 02:14:12;;;;;;;2.65;1.25;;;4.20;99.90;;;;;;5057722;28;20021;-73
2023/03/08 02:16:42;;;;;;;0.65;0.65;;;4.20;99.90;;;;;;5057778;28;20033;-74
2023/03/08 02:19:41;;;;;;;0.52;0.52;;;4.20;99.90;;;;;;5057354;28;20021;-73
2023/03/08 02:22:09;;;;;;;1.95;1.05;;;4.20;99.90;;;;;;5057522;28;20045;-72
2023/03/08 02:24:35;;;;;;;0.20;0.20;;;4.20;99.90;;;;;;5057698;28;20104;-73
2023/03/08 02:27:16;;;;;;;0.20;0.20;;;4.10;99.90;;;;;;5058670;28;20116;-73
2023/03/08 02:29:42;;;;;;;0.10;0.10;;;4.20;99.90;;;;;;5058997;28;20466;-72
2023/03/08 02:32:08;;;;;;;1.17;1.17;;;4.20;99.90;;;;;;5057731;28;20021;-73
2023/03/08 02:34:35;;;;;;;0.30;0.30;;;4.10;99.90;;;;;;5057564;28;20096;-72
2023/03/08 02:37:01;;;;;;;0.45;0.35;;;4.10;99.90;;;;;;5057826;28;20029;-72
2023/03/08 02:39:27;;;;;;;0.13;0.13;;;4.10;99.90;;;;;;5058669;28;20028;-72
2023/03/08 02:41:54;;;;;;;0.00;0.00;;;4.10;99.90;;;;;;5057313;28;20059;-72
2023/03/08 02:44:20;;;;;;;1.85;1.00;;;4.10;99.90;;;;;;5057515;28;20029;-72
2023/03/08 02:46:46;;;;;;;0.20;0.20;;;4.20;99.90;;;;;;5058916;28;20028;-72
2023/03/08 02:49:12;;;;;;;3.95;1.60;;;4.20;99.90;;;;;;5058964;28;20063;-72
2023/03/08 02:51:39;;;;;;;0.20;0.20;;;4.20;99.90;;;;;;5041345;28;20107;-72
2023/03/08 02:54:05;;;;;;;0.28;0.28;;;4.10;99.90;;;;;;5057282;28;20033;-72
2023/03/08 02:56:31;;;;;;;1.30;1.20;;;4.20;99.90;;;;;;5054994;28;20036;-72
2023/03/08 02:58:57;;;;;;;0.40;0.40;;;4.20;99.90;;;;;;5046833;28;20021;-72
2023/03/08 03:01:23;;;;;;;3.13;1.10;;;4.30;99.90;;;;;;5057493;28;20481;-73
2023/03/08 03:03:49;;;;;;;0.75;0.75;;;4.20;99.90;;;;;;5043091;28;20377;-72
2023/03/08 03:06:19;;;;;;;0.10;0.10;;;4.50;99.90;;;;;;5058563;28;20025;-72
2023/03/08 03:08:49;;;;;;;0.55;0.55;;;4.40;99.90;;;;;;5057277;28;20017;-72
2023/03/08 03:11:19;;;;;;;0.43;0.43;;;4.40;99.90;;;;;;5040890;28;20400;-72
2023/03/08 03:13:52;;;;;;;0.43;0.43;;;4.10;99.90;;;;;;5053572;28;20362;-73
2023/03/08 03:16:18;;;;;;;7.90;4.25;;;4.00;99.90;;;;;;5054165;28;20094;-72
2023/03/08 03:18:44;;;;;;;0.10;0.10;;;3.90;99.90;;;;;;5055200;28;20028;-72
2023/03/08 03:21:12;;;;;;;3.05;1.67;;;4.10;99.90;;;;;;5055177;28;20378;-72
2023/03/08 03:23:38;;;;;;;4.47;1.38;;;4.10;99.90;;;;;;5053908;28;20061;-72
2023/03/08 03:26:06;;;;;;;0.10;0.10;;;4.00;99.90;;;;;;5087154;28;20025;-72
2023/03/08 03:28:33;;;;;;;0.63;0.63;;;4.00;99.90;;;;;;5053992;28;20025;-72
2023/03/08 03:31:05;;;;;;;3.42;2.38;;;3.80;99.90;;;;;;5053760;28;20144;-72
2023/03/08 03:33:31;;;;;;;5.00;2.40;;;3.90;99.90;;;;;;5054003;28;20025;-72
2023/03/08 03:35:56;;;;;;;0.50;0.50;;;4.00;99.90;;;;;;5054732;28;20032;-72
2023/03/08 03:38:22;;;;;;;5.07;3.13;;;3.90;99.90;;;;;;5054921;28;20021;-72
2023/03/08 03:40:48;;;;;;;6.53;1.65;;;3.80;99.90;;;;;;5051882;28;20029;-72
2023/03/08 03:43:14;;;;;;;5.35;3.42;;;3.80;99.90;;;;;;5092221;28;20083;-72
2023/03/08 03:45:40;;;;;;;3.58;0.77;;;3.60;99.90;;;;;;5059585;28;20485;-72
2023/03/08 03:48:06;;;;;;;2.10;1.02;;;3.60;99.90;;;;;;5054616;28;20049;-72
2023/03/08 03:50:32;;;;;;;2.47;1.88;;;3.50;99.90;;;;;;5036942;28;20033;-71
2023/03/08 03:53:06;;;;;;;3.30;2.53;;;3.50;99.90;;;;;;5053052;28;20025;-72
2023/03/08 03:55:32;;;;;;;1.23;1.13;;;3.40;99.90;;;;;;5053253;28;20457;-72
2023/03/08 03:57:59;;;;;;;5.15;3.13;;;3.40;99.90;;;;;;5053168;28;20111;-72
2023/03/08 04:00:25;;;;;;;1.23;1.20;;;3.40;99.90;;;;;;5053160;28;20104;-72
2023/03/08 04:03:03;;;;;;;1.40;0.43;;;3.50;99.90;;;;;;5053456;28;20029;-72
2023/03/08 04:05:29;;;;;;;2.30;1.30;;;3.40;99.90;;;;;;5053071;28;20070;-72
2023/03/08 04:07:55;;;;;;;1.20;1.17;;;3.30;99.90;;;;;;5053139;28;20032;-75
2023/03/08 04:10:25;;;;;;;0.10;0.10;;;3.30;99.90;;;;;;5053172;28;20062;-75
2023/03/08 04:12:52;;;;;;;0.40;0.40;;;3.30;99.90;;;;;;5053151;28;20033;-75
2023/03/08 04:15:20;;;;;;;1.92;1.58;;;3.30;99.90;;;;;;5036502;28;20432;-75
2023/03/08 04:17:45;;;;;;;7.20;1.15;;;3.20;99.90;;;;;;5053028;28;20098;-75
2023/03/08 04:20:13;;;;;;;1.17;0.95;;;3.40;99.90;;;;;;5052822;28;20052;-74
2023/03/08 04:22:43;;;;;;;3.53;1.60;;;3.20;99.90;;;;;;5045758;28;20026;-75
2023/03/08 04:25:16;;;;;;;2.13;1.17;;;3.20;99.90;;;;;;5079753;28;20389;-75
2023/03/08 04:27:48;;;;;;;1.60;1.38;;;3.40;99.90;;;;;;5052840;28;20468;-74
2023/03/08 04:30:14;;;;;;;1.85;0.55;;;3.40;99.90;;;;;;5052686;28;20021;-75
2023/03/08 04:32:40;;;;;;;4.40;2.55;;;3.10;99.90;;;;;;5052720;28;20021;-75
2023/03/08 04:35:06;;;;;;;2.30;1.85;;;3.10;99.90;;;;;;5052411;28;20127;-75
2023/03/08 04:37:36;;;;;;;6.88;3.38;;;3.10;99.90;;;;;;5052466;28;20100;-76
2023/03/08 04:40:08;;;;;;;0.13;0.13;;;3.20;99.90;;;;;;5036493;28;20147;-75
2023/03/08 04:42:39;;;;;;;0.20;0.20;;;3.10;99.90;;;;;;5052455;28;20544;-75
2023/03/08 04:45:07;;;;;;;4.80;2.40;;;3.30;99.90;;;;;;5052379;28;20460;-75
2023/03/08 04:47:33;;;;;;;1.00;0.98;;;3.20;99.90;;;;;;5085897;28;20021;-74
2023/03/08 04:49:59;;;;;;;1.20;1.10;;;3.20;99.90;;;;;;5052567;28;20388;-75
2023/03/08 04:52:25;;;;;;;4.15;2.08;;;3.10;99.90;;;;;;5052116;28;20033;-73
2023/03/08 04:54:51;;;;;;;1.65;1.48;;;2.90;99.90;;;;;;5052463;28;20059;-72
2023/03/08 04:57:24;;;;;;;0.10;0.10;;;2.90;99.90;;;;;;5051993;28;20037;-73
2023/03/08 04:59:53;;;;;;;0.57;0.57;;;2.80;99.90;;;;;;5052044;28;20025;-73
2023/03/08 05:02:22;;;;;;;1.85;1.55;;;2.80;99.90;;;;;;5085548;28;20477;-72
2023/03/08 05:04:48;;;;;;;2.45;1.27;;;2.80;99.90;;;;;;5053273;28;20032;-72
2023/03/08 05:07:13;;;;;;;6.30;3.33;;;2.80;99.90;;;;;;5084924;28;20500;-74
2023/03/08 05:09:40;;;;;;;0.30;0.30;;;2.70;99.90;;;;;;5051987;28;20036;-72
2023/03/08 05:12:06;;;;;;;1.70;1.33;;;2.80;99.90;;;;;;5051674;28;20493;-73
2023/03/08 05:14:42;;;;;;;3.38;2.42;;;2.80;99.90;;;;;;5085549;28;20565;-72
2023/03/08 05:17:08;;;;;;;2.83;0.43;;;2.80;99.90;;;;;;5051407;28;20029;-73
2023/03/08 05:19:34;;;;;;;2.55;0.90;;;2.80;99.90;;;;;;5051819;28;20025;-72
2023/03/08 05:22:00;;;;;;;2.83;1.90;;;2.80;99.90;;;;;;5032237;28;20068;-73
2023/03/08 05:24:26;;;;;;;0.40;0.40;;;2.70;99.90;;;;;;5051722;28;20472;-73
2023/03/08 05:26:53;;;;;;;3.17;2.13;;;2.70;99.90;;;;;;5051700;28;20040;-73
2023/03/08 05:29:19;;;;;;;1.77;1.67;;;2.50;99.90;;;;;;5084958;28;20030;-74
2023/03/08 05:31:48;;;;;;;0.10;0.10;;;2.50;99.90;;;;;;5051492;28;20040;-74
2023/03/08 05:34:14;;;;;;;2.45;0.43;;;2.70;99.90;;;;;;5051387;28;20032;-72
2023/03/08 05:36:44;;;;;;;1.17;1.02;;;2.50;99.90;;;;;;5084363;28;20126;-76
2023/03/08 05:39:10;;;;;;;1.48;1.38;;;2.60;99.90;;;;;;5051302;28;20025;-73
2023/03/08 05:41:55;;;;;;;1.20;1.10;;;2.60;99.90;;;;;;5052962;28;20035;-73
2023/03/08 05:44:27;;;;;;;0.80;0.60;;;2.40;99.90;;;;;;5084784;28;20033;-73
2023/03/08 05:46:54;;;;;;;3.83;2.00;;;2.40;99.90;;;;;;5051495;28;20083;-73
2023/03/08 05:49:21;;;;;;;5.78;3.33;;;2.30;99.90;;;;;;5084562;28;20029;-74
2023/03/08 05:51:47;;;;;;;1.25;0.95;;;2.40;99.90;;;;;;5051336;28;20119;-75
2023/03/08 05:54:13;;;;;;;5.60;2.83;;;2.40;99.90;;;;;;5052408;28;20037;-74
2023/03/08 05:56:41;;;;;;;0.75;0.65;;;2.20;99.90;;;;;;5051183;28;20040;-74
2023/03/08 05:59:15;;;;;;;0.20;0.20;;;2.30;99.90;;;;;;5051428;28;20370;-73
2023/03/08 06:01:41;;;;;;;1.02;0.88;;;2.00;99.90;;;;;;5084960;28;20021;-74
2023/03/08 06:04:17;;;;;;;2.80;1.88;;;2.20;99.90;;;;;;5084491;28;20048;-75
2023/03/08 06:06:47;;;;;;;6.65;2.35;;;2.20;99.90;;;;;;5084388;28;20017;-74
2023/03/08 06:09:13;;;;;;;0.70;0.70;;;2.00;99.90;;;;;;5052506;28;20842;-73
2023/03/08 06:11:41;;;;;;;0.75;0.75;;;2.00;99.90;;;;;;5051233;28;20017;-73
2023/03/08 06:14:08;;;;;;;4.50;1.23;;;2.00;99.90;;;;;;5051034;28;20116;-73
2023/03/08 06:16:34;;;;;;;0.28;0.28;;;1.90;99.90;;;;;;5050956;28;20033;-74
2023/03/08 06:19:01;;;;;;;1.42;0.82;;;1.90;99.90;;;;;;5051919;28;20029;-73
2023/03/08 06:21:27;;;;;;;6.15;2.13;;;1.90;99.90;;;;;;5051041;28;20074;-74
2023/03/08 06:23:58;;;;;;;0.28;0.28;;;1.80;99.90;;;;;;5050981;28;20025;-75
2023/03/08 06:26:24;;;;;;;1.50;1.35;;;1.90;99.90;;;;;;5051032;28;20042;-74
2023/03/08 06:28:51;;;;;;;0.25;0.25;;;1.90;99.90;;;;;;5084276;28;20063;-73
2023/03/08 06:31:18;;;;;;;2.40;1.58;;;2.10;99.90;;;;;;5050994;28;20057;-74
2023/03/08 06:33:44;;;;;;;0.82;0.82;;;1.90;99.90;;;;;;5050700;28;20052;-74
2023/03/08 06:36:21;;;;;;;1.48;1.38;;;1.90;99.90;;;;;;5084399;28;20516;-74
2023/03/08 06:38:48;;;;;;;0.52;0.52;;;1.80;99.90;;;;;;5050706;28;20048;-74
2023/03/08 06:41:16;;;;;;;3.97;1.33;;;1.90;99.90;;;;;;5050858;28;20025;-76
2023/03/08 06:43:43;;;;;;;2.22;1.95;;;1.80;99.90;;;;;;5052451;28;20013;-76
2023/03/08 06:46:12;;;;;;;1.67;1.58;;;1.90;99.90;;;;;;5052083;28;20033;-76
2023/03/08 06:48:40;;;;;;;0.88;0.88;;;1.90;99.90;;;;;;5053141;28;20458;-76
2023/03/08 06:51:05;;;;;;;1.27;1.17;;;2.00;99.90;;;;;;5054571;28;20044;-77
2023/03/08 06:53:34;;;;;;;0.20;0.20;;;1.80;99.90;;;;;;5054444;28;20025;-77
2023/03/08 06:56:03;;;;;;;0.10;0.10;;;1.80;99.90;;;;;;5054308;28;20417;-77
2023/03/08 06:58:32;;;;;;;3.40;0.95;;;1.90;99.90;;;;;;5054331;28;20108;-77
2023/03/08 07:00:58;;;;;;;1.55;1.23;;;1.90;99.90;;;;;;5055696;28;20032;-75
2023/03/08 07:03:25;;;;;;;1.48;1.15;;;1.80;99.90;;;;;;5055223;28;20087;-76
2023/03/08 07:05:51;;;;;;;0.20;0.20;;;1.70;99.90;;;;;;5055686;28;20485;-75
2023/03/08 07:08:17;;;;;;;0.52;0.52;;;1.80;99.90;;;;;;5055404;28;20064;-76
2023/03/08 07:10:43;;;;;;;0.65;0.65;;;1.80;99.90;;;;;;5055630;28;20121;-77
2023/03/08 07:13:09;;;;;;;0.20;0.20;;;1.90;99.90;;;;;;5055707;28;20115;-76
2023/03/08 07:15:38;;;;;;;1.00;0.73;;;1.90;99.90;;;;;;5053897;28;20036;-76
2023/03/08 07:18:04;;;;;;;0.25;0.17;;;2.00;99.90;;;;;;5054978;28;20535;-76
2023/03/08 07:20:29;;;;;;;0.17;0.17;;;2.00;99.90;;;;;;5055162;28;20025;-77
2023/03/08 07:22:55;;;;;;;0.22;0.22;;;2.10;99.90;;;;;;5055430;28;20032;-77
2023/03/08 07:25:21;;;;;;;0.15;0.15;;;2.10;99.90;;;;;;5055271;28;20469;-77
2023/03/08 07:27:47;;;;;;;0.93;0.50;;;2.00;99.90;;;;;;5054947;28;20028;-74
2023/03/08 07:30:15;;;;;;;0.45;0.45;;;1.80;99.90;;;;;;5054633;28;20346;-77
2023/03/08 07:32:41;;;;;;;0.40;0.40;;;1.90;99.90;;;;;;5054008;28;20036;-78
2023/03/08 07:35:09;;;;;;;0.22;0.22;;;1.90;99.90;;;;;;5054317;28;20147;-77
2023/03/08 07:37:35;;;;;;;0.90;0.82;;;1.90;99.90;;;;;;5054177;28;20025;-77
2023/03/08 07:40:01;;;;;;;1.48;0.88;;;2.00;99.90;;;;;;5053856;28;20051;-75
2023/03/08 07:42:27;;;;;;;0.55;0.55;;;1.90;99.90;;;;;;5053900;28;20120;-74
2023/03/08 07:44:58;;;;;;;1.83;0.98;;;1.90;99.90;;;;;;5052209;28;20017;-75
2023/03/08 07:47:24;;;;;;;0.50;0.50;;;1.90;99.90;;;;;;5051417;28;20025;-74
2023/03/08 07:49:50;;;;;;;1.42;1.35;;;1.90;99.90;;;;;;5062054;28;20021;-75
2023/03/08 07:52:15;;;;;;;0.80;0.77;;;1.90;99.90;;;;;;5060264;28;20044;-75
2023/03/08 07:54:42;;;;;;;1.10;1.02;;;2.00;99.90;;;;;;5056682;28;20064;-75
2023/03/08 07:57:14;;;;;;;1.15;0.95;;;2.20;99.90;;;;;;5054338;28;20470;-75
2023/03/08 07:59:41;;;;;;;0.10;0.10;;;2.10;99.90;;;;;;5052330;28;20025;-80
2023/03/08 08:02:11;;;;;;;1.38;1.10;;;2.10;99.90;;;;;;5038097;28;20119;-77
2023/03/08 08:04:37;;;;;;;0.28;0.28;;;2.10;99.90;;;;;;5068238;28;20468;-76
2023/03/08 08:07:03;;;;;;;0.43;0.32;;;2.10;99.90;;;;;;5060860;28;20024;-77
2023/03/08 08:09:28;;;;;;;0.20;0.20;;;1.90;99.90;;;;;;5057564;28;20036;-77
2023/03/08 08:11:54;;;;;;;0.70;0.70;;;1.90;99.90;;;;;;5053208;28;20115;-76
2023/03/08 08:14:20;;;;;;;0.22;0.22;;;1.90;99.90;;;;;;5051489;28;20059;-76
2023/03/08 08:16:46;;;;;;;0.20;0.20;;;2.10;99.90;;;;;;5061817;28;20028;-75
2023/03/08 08:19:15;;;;;;;0.40;0.38;;;2.20;99.90;;;;;;5055069;28;20112;-76
2023/03/08 08:21:41;;;;;;;0.90;0.90;;;2.40;99.90;;;;;;5057656;28;20033;-76
2023/03/08 08:24:07;;;;;;;0.20;0.20;;;2.40;99.90;;;;;;5056603;28;20397;-74
2023/03/08 08:26:33;;;;;;;0.30;0.30;;;2.30;99.90;;;;;;5048104;28;20026;-75
2023/03/08 08:28:59;;;;;;;0.35;0.35;;;2.40;99.90;;;;;;5056752;28;20495;-75
2023/03/08 08:31:29;;;;;;;0.50;0.50;;;2.50;99.90;;;;;;5052860;28;20077;-79
2023/03/08 08:33:56;;;;;;;0.20;0.20;;;2.40;99.90;;;;;;5057800;28;20473;-75
2023/03/08 08:36:22;;;;;;;1.08;0.60;;;2.40;99.90;;;;;;5055698;28;20370;-74
2023/03/08 08:38:48;;;;;;;3.45;1.83;;;2.30;99.90;;;;;;5052257;28;20036;-74
2023/03/08 08:41:16;;;;;;;1.40;1.27;;;2.30;99.90;;;;;;5059223;28;20025;-73
2023/03/08 08:43:44;;;;;;;0.45;0.35;;;2.10;99.90;;;;;;5056856;28;20377;-76
2023/03/08 08:46:10;;;;;;;1.60;0.60;;;2.20;99.90;;;;;;5057126;28;20155;-77
2023/03/08 08:48:37;;;;;;;0.30;0.30;;;2.30;99.90;;;;;;5046214;28;20013;-75
2023/03/08 08:51:04;;;;;;;0.68;0.68;;;2.20;99.90;;;;;;5056149;28;20028;-75
2023/03/08 08:53:30;;;;;;;2.28;1.52;;;2.10;99.90;;;;;;5081988;28;20039;-76
2023/03/08 08:55:57;;;;;;;0.60;0.52;;;2.10;99.90;;;;;;5049705;28;20037;-76
2023/03/08 08:58:23;;;;;;;0.73;0.73;;;2.10;99.90;;;;;;5054667;28;20448;-76
2023/03/08 09:00:49;;;;;;;1.23;1.05;;;2.20;99.90;;;;;;5059935;28;20029;-77
2023/03/08 09:03:14;;;;;;;0.95;0.90;;;2.10;99.90;;;;;;5069612;28;20107;-76
2023/03/08 09:05:43;;;;;;;0.43;0.43;;;2.30;99.90;;;;;;5061397;28;20358;-76
2023/03/08 09:08:10;;;;;;;0.10;0.10;;;2.40;99.90;;;;;;5061392;28;20430;-77
2023/03/08 09:10:37;;;;;;;2.20;2.00;;;2.60;99.90;;;;;;5054043;28;20010;-75
2023/03/08 09:13:04;;;;;;;0.30;0.30;;;2.40;99.90;;;;;;5061213;28;20024;-75
2023/03/08 09:15:30;;;;;;;1.08;0.82;;;2.40;99.90;;;;;;5064012;28;20079;-75
2023/03/08 09:17:55;;;;;;;2.08;1.80;;;2.50;99.90;;;;;;5048811;28;20025;-75
2023/03/08 09:20:21;;;;;;;1.08;0.90;;;2.40;99.90;;;;;;5050558;28;20566;-75
2023/03/08 09:22:47;;;;;;;0.65;0.65;;;2.50;99.90;;;;;;5052892;28;20051;-75
2023/03/08 09:25:13;;;;;;;0.70;0.70;;;2.50;99.90;;;;;;5052315;28;20075;-75
2023/03/08 09:27:40;;;;;;;2.28;1.90;;;2.60;99.90;;;;;;5056174;28;20017;-76
2023/03/08 09:30:09;;;;;;;3.25;1.30;;;2.60;99.90;;;;;;5056539;28;20454;-78
2023/03/08 09:32:35;;;;;;;5.97;1.05;;;2.70;99.90;;;;;;5056219;28;20025;-77
2023/03/08 09:35:03;;;;;;;0.93;0.75;;;2.70;99.90;;;;;;5060043;28;20116;-78
2023/03/08 09:37:29;;;;;;;0.30;0.30;;;2.60;99.90;;;;;;5057698;28;20032;-77
2023/03/08 09:39:55;;;;;;;2.03;1.02;;;2.60;99.90;;;;;;5055742;28;20167;-76
2023/03/08 09:42:28;;;;;;;1.00;0.63;;;2.70;99.90;;;;;;5055316;28;20509;-76
2023/03/08 09:45:12;;;;;;;1.75;0.85;;;2.80;99.90;;;;;;5048226;28;20036;-77
2023/03/08 09:47:58;;;;;;;4.18;2.67;;;2.80;99.90;;;;;;5066949;28;20108;-74
2023/03/08 09:50:33;;;;;;;0.88;0.88;;;2.90;99.90;;;;;;5066162;28;20485;-76
2023/03/08 09:53:03;;;;;;;0.38;0.38;;;3.10;99.90;;;;;;5051823;28;20035;-75
2023/03/08 09:55:35;;;;;;;1.65;1.05;;;3.20;99.90;;;;;;5054711;28;20079;-74
2023/03/08 09:58:30;;;;;;;1.45;1.10;;;3.30;99.90;;;;;;5054249;28;20116;-73
2023/03/08 10:01:14;;;;;;;0.98;0.95;;;3.20;99.90;;;;;;5050592;28;20029;-74
2023/03/08 10:04:12;;;;;;;2.53;1.58;;;3.10;99.90;;;;;;5065049;28;20025;-74
2023/03/08 10:06:53;;;;;;;0.90;0.82;;;3.10;99.90;;;;;;5042014;28;20056;-73
2023/03/08 10:09:38;;;;;;;2.05;1.75;;;3.20;99.90;;;;;;5052711;28;20025;-72
2023/03/08 10:12:25;;;;;;;1.90;1.48;;;3.10;99.90;;;;;;5087368;28;20021;-72
2023/03/08 10:14:57;;;;;;;1.15;1.05;;;3.20;99.90;;;;;;5045764;28;20549;-74
2023/03/08 10:17:29;;;;;;;1.55;1.45;;;3.30;99.90;;;;;;5087491;28;20401;-73
2023/03/08 10:20:00;;;;;;;3.50;1.73;;;3.50;99.90;;;;;;5056189;28;20059;-73
2023/03/08 10:22:29;;;;;;;2.88;2.17;;;3.40;99.90;;;;;;5052338;28;20040;-74
2023/03/08 10:25:16;;;;;;;1.95;1.75;;;3.40;99.90;;;;;;5041229;28;20469;-78
2023/03/08 10:27:42;;;;;;;1.75;1.45;;;3.20;99.90;;;;;;5055006;28;20480;-73
2023/03/08 10:30:14;;;;;;;1.27;1.10;;;3.40;99.90;;;;;;5065446;28;20043;-73
2023/03/08 10:32:46;;;;;;;3.17;2.30;;;3.50;99.90;;;;;;5058666;28;20059;-73
2023/03/08 10:35:12;;;;;;;3.00;2.35;;;3.50;99.90;;;;;;5061251;28;20535;-73
2023/03/08 10:37:37;;;;;;;2.88;1.85;;;3.40;99.90;;;;;;5057791;28;20029;-73
2023/03/08 10:40:12;;;;;;;0.60;0.60;;;3.40;99.90;;;;;;5055790;28;20083;-73
2023/03/08 10:42:52;;;;;;;5.35;1.65;;;3.60;99.90;;;;;;5062307;28;20032;-72
2023/03/08 10:45:21;;;;;;;4.53;1.95;;;3.60;99.90;;;;;;5043087;28;20466;-72
2023/03/08 10:47:59;;;;;;;3.03;2.25;;;3.50;99.90;;;;;;5055808;28;20066;-72
2023/03/08 10:50:29;;;;;;;5.53;3.53;;;3.50;99.90;;;;;;5059257;28;20106;-73
2023/03/08 10:53:06;;;;;;;3.72;1.92;;;3.40;99.90;;;;;;5061564;28;20436;-72
2023/03/08 10:55:41;;;;;;;1.40;1.25;;;3.70;99.90;;;;;;5045041;28;20025;-72
2023/03/08 10:58:27;;;;;;;3.90;2.45;;;3.60;99.90;;;;;;5049020;28;20045;-73
2023/03/08 11:00:55;;;;;;;5.75;0.70;;;3.50;99.90;;;;;;5062749;28;20385;-72
2023/03/08 11:03:23;;;;;;;4.95;1.95;;;3.50;99.90;;;;;;5066728;28;20017;-72
2023/03/08 11:06:14;;;;;;;8.23;2.97;;;3.40;99.90;;;;;;5060735;28;20120;-71
2023/03/08 11:08:53;;;;;;;5.82;1.42;;;3.40;99.90;;;;;;5053496;28;20354;-71
2023/03/08 11:11:18;;;;;;;3.58;2.53;;;3.50;99.90;;;;;;5056077;28;20112;-78
2023/03/08 11:13:47;;;;;;;4.43;2.83;;;3.60;99.90;;;;;;5086872;28;20533;-73
2023/03/08 11:16:21;;;;;;;0.85;0.85;;;3.70;99.90;;;;;;5051074;28;20043;-73
2023/03/08 11:19:09;;;;;;;4.88;3.22;;;3.90;99.90;;;;;;5051294;28;20024;-73
2023/03/08 11:22:14;;;;;;;2.35;1.55;;;3.70;99.90;;;;;;5057620;28;20037;-73
2023/03/08 11:24:48;;;;;;;0.50;0.50;;;3.60;99.90;;;;;;5059920;28;20465;-73
2023/03/08 11:27:46;;;;;;;1.95;1.85;;;3.80;99.90;;;;;;5056436;28;20496;-72
2023/03/08 11:30:28;;;;;;;4.97;3.20;;;3.90;99.90;;;;;;5058378;28;20047;-73
2023/03/08 11:32:53;;;;;;;;;;;3.80;99.90;;;;;;5056055;28;20589;-73
2023/03/08 11:35:24;;;;;;;0.93;0.82;;;3.70;99.90;;;;;;5057398;28;20017;-72
2023/03/08 11:38:04;;;;;;;2.58;1.85;;;3.80;99.90;;;;;;5060386;28;20047;-73
2023/03/08 11:40:52;;;;;;;1.20;1.15;;;3.90;99.90;;;;;;5057555;28;20033;-74
2023/03/08 11:43:23;;;;;;;6.75;3.13;;;4.00;99.90;;;;;;5053003;28;20032;-72
2023/03/08 11:45:54;;;;;;;1.33;1.23;;;3.80;99.90;;;;;;5047664;28;20033;-73
2023/03/08 11:48:35;;;;;;;2.05;1.02;;;4.00;99.90;;;;;;5061416;28;20477;-73
2023/03/08 11:51:09;;;;;;;0.40;0.40;;;3.90;99.90;;;;;;5058268;28;20107;-72
2023/03/08 11:54:01;;;;;;;0.80;0.80;;;3.90;99.90;;;;;;5055584;28;20501;-73
2023/03/08 11:56:27;;;;;;;;;;;3.80;99.90;;;;;;5053501;28;20033;-72
2023/03/08 11:58:59;;;;;;;1.95;1.23;;;3.90;99.90;;;;;;5056340;28;19959;-72
2023/03/08 12:01:44;;;;;;;6.40;3.80;;;3.90;99.90;;;;;;5066065;28;20037;-72
2023/03/08 12:04:18;;;;;;;4.28;3.03;;;3.90;99.90;;;;;;5067968;28;20028;-72
2023/03/08 12:06:46;;;;;;;2.47;1.98;;;3.90;99.90;;;;;;5063183;28;20538;-72
2023/03/08 12:09:31;;;;;;;1.00;0.95;;;3.80;99.90;;;;;;5057531;28;20074;-73
2023/03/08 12:12:17;;;;;;;2.55;2.35;;;3.90;99.90;;;;;;5055891;28;20086;-74
2023/03/08 12:15:01;;;;;;;1.00;0.88;;;4.10;99.90;;;;;;5051054;28;20393;-72
2023/03/08 12:17:43;;;;;;;7.32;4.38;;;3.90;99.90;;;;;;5057387;28;20135;-73
2023/03/08 12:20:18;;;;;;;6.50;4.72;;;3.90;99.90;;;;;;5062218;28;20437;-74
2023/03/08 12:22:55;;;;;;;3.20;2.90;;;3.90;99.90;;;;;;5041845;28;20068;-74
2023/03/08 12:25:32;;;;;;;4.60;2.78;;;3.90;99.90;;;;;;5065909;28;20469;-78
2023/03/08 12:28:12;;;;;;;7.65;2.78;;;4.00;99.90;;;;;;5064515;28;20036;-76
2023/03/08 12:31:07;;;;;;;8.07;3.30;;;4.10;99.90;;;;;;5061702;28;20507;-77
2023/03/08 12:33:33;;;;;;;0.82;0.73;;;4.50;99.90;;;;;;5088200;28;20098;-77
2023/03/08 12:36:02;;;;;;;3.53;3.22;;;4.50;99.90;;;;;;5053921;28;20025;-77
2023/03/08 12:38:33;;;;;;;3.40;1.85;;;4.60;99.90;;;;;;5067619;28;20071;-75
2023/03/08 12:40:59;;;;;;;2.17;2.00;;;4.50;99.90;;;;;;5059537;28;20448;-77
2023/03/08 12:43:25;;;;;;;5.15;3.22;;;4.60;99.90;;;;;;5055605;28;20401;-73
2023/03/08 12:45:59;;;;;;;1.55;1.27;;;4.70;99.90;;;;;;5054518;28;20025;-73
2023/03/08 12:48:47;;;;;;;3.30;2.40;;;4.20;99.90;;;;;;5058645;28;20044;-73
2023/03/08 12:51:14;;;;;;;1.27;1.05;;;4.30;99.90;;;;;;5066237;28;20041;-73
2023/03/08 12:53:42;;;;;;;5.72;4.35;;;4.10;99.90;;;;;;5039015;28;20020;-75
2023/03/08 12:56:11;;;;;;;5.03;3.83;;;4.20;99.90;;;;;;5051947;28;20439;-74
2023/03/08 12:58:39;;;;;;;4.75;3.28;;;4.30;99.90;;;;;;5048745;28;20036;-73
2023/03/08 13:01:23;;;;;;;5.88;2.40;;;4.40;99.90;;;;;;5053968;28;20025;-77
2023/03/08 13:03:49;;;;;;;4.32;1.35;;;4.20;99.90;;;;;;5064400;28;20043;-74
2023/03/08 13:06:35;;;;;;;11.75;2.45;;;4.20;99.90;;;;;;5064796;28;20024;-74
2023/03/08 13:09:25;;;;;;;1.95;1.10;;;4.10;99.90;;;;;;5046843;28;20029;-73
2023/03/08 13:12:19;;;;;;;2.92;1.83;;;4.20;99.90;;;;;;5054578;28;20150;-72